Time;durP1;ratioP1;P1;durP2;ratioP2;P2;SDS_P1;SDS_P2;PMS_P1;PMS_P2;Temp;Humidity;BMP_temperature;BMP_pressure;BME280_temperature;BME280_humidity;BME280_pressure;Samples;Min_cycle;Max_cycle;Signal;HPM_P1;HPM_P2
2022/09/30 00:01:25;;;;;;;21.58;13.35;;;;;;;;;;5023087;28;20488;-75
2022/09/30 00:03:52;;;;;;;26.73;13.38;;;;;;;;;;5021374;28;20033;-74
2022/09/30 00:06:19;;;;;;;23.60;13.13;;;;;;;;;;5018302;28;20109;-74
2022/09/30 00:08:45;;;;;;;24.08;12.65;;;;;;;;;;5018607;28;20037;-74
2022/09/30 00:11:18;;;;;;;25.23;12.90;;;;;;;;;;5024205;28;20033;-75
2022/09/30 00:13:46;;;;;;;25.70;14.57;;;;;;;;;;5018972;28;20108;-75
2022/09/30 00:16:14;;;;;;;24.98;13.38;;;;;;;;;;5034981;28;20038;-74
2022/09/30 00:18:41;;;;;;;22.05;12.60;;;;;;;;;;5026433;28;20116;-75
2022/09/30 00:21:07;;;;;;;23.67;13.88;;;;;;;;;;5028147;28;20093;-75
2022/09/30 00:23:33;;;;;;;24.70;13.05;;;;;;;;;;5026307;28;20109;-75
2022/09/30 00:26:01;;;;;;;24.00;13.48;;;;;;;;;;5034601;28;20486;-75
2022/09/30 00:28:28;;;;;;;25.05;15.05;;;;;;;;;;5019674;28;20092;-77
2022/09/30 00:30:57;;;;;;;25.20;12.90;;;;;;;;;;5026445;28;20061;-75
2022/09/30 00:33:23;;;;;;;28.30;13.27;;;;;;;;;;5034658;28;20030;-76
2022/09/30 00:35:49;;;;;;;24.38;14.10;;;;;;;;;;5025476;28;20033;-74
2022/09/30 00:38:14;;;;;;;21.85;12.93;;;;;;;;;;5026360;28;20099;-74
2022/09/30 00:40:40;;;;;;;21.48;13.43;;;;;;;;;;5034262;28;20049;-81
2022/09/30 00:43:15;;;;;;;23.83;13.00;;;;;;;;;;5045532;28;20028;-79
2022/09/30 00:45:49;;;;;;;25.50;13.50;;;;;;;;;;5026321;28;20079;-79
2022/09/30 00:48:20;;;;;;;23.63;12.93;;;;;;;;;;5041199;28;20122;-80
2022/09/30 00:50:54;;;;;;;24.23;12.80;;;;;;;;;;5042207;28;20044;-79
2022/09/30 00:53:35;;;;;;;29.90;14.23;;;;;;;;;;5040835;28;20031;-79
2022/09/30 00:56:08;;;;;;;26.02;13.15;;;;;;;;;;5038740;28;20051;-78
2022/09/30 00:58:59;;;;;;;24.33;12.27;;;;;;;;;;5038546;28;20036;-78
2022/09/30 01:01:24;;;;;;;26.90;13.25;;;;;;;;;;5050174;28;20024;-79
2022/09/30 01:04:00;;;;;;;22.05;12.48;;;;;;;;;;5039891;28;20178;-78
2022/09/30 01:06:26;;;;;;;21.98;12.60;;;;;;;;;;5041814;28;20032;-78
2022/09/30 01:08:54;;;;;;;25.17;13.80;;;;;;;;;;5040185;28;20378;-78
2022/09/30 01:11:20;;;;;;;30.35;12.95;;;;;;;;;;5041199;28;20033;-77
2022/09/30 01:13:48;;;;;;;22.13;11.95;;;;;;;;;;5042914;28;20025;-78
2022/09/30 01:16:38;;;;;;;21.38;12.23;;;;;;;;;;5038325;28;20072;-78
2022/09/30 01:19:34;;;;;;;21.63;12.07;;;;;;;;;;5048776;28;20060;-79
2022/09/30 01:22:26;;;;;;;23.73;13.15;;;;;;;;;;5042195;28;20025;-78
2022/09/30 01:25:23;;;;;;;23.27;12.55;;;;;;;;;;5044376;28;20036;-79
2022/09/30 01:28:09;;;;;;;21.40;12.02;;;;;;;;;;5036152;28;20040;-79
2022/09/30 01:30:50;;;;;;;25.52;13.10;;;;;;;;;;5042932;28;20048;-79
2022/09/30 01:33:42;;;;;;;22.83;12.35;;;;;;;;;;5039937;28;20441;-78
2022/09/30 01:36:22;;;;;;;;;;;;;;;;;;5044252;28;20029;-79
2022/09/30 01:39:34;;;;;;;25.33;12.85;;;;;;;;;;5040759;28;20463;-79
2022/09/30 01:42:11;;;;;;;22.63;12.23;;;;;;;;;;5015136;28;20048;-78
2022/09/30 01:44:54;;;;;;;24.08;13.65;;;;;;;;;;5037008;28;20028;-78
2022/09/30 01:47:30;;;;;;;28.25;13.52;;;;;;;;;;5035935;28;20036;-77
2022/09/30 01:50:02;;;;;;;24.50;13.60;;;;;;;;;;5044053;28;20040;-78
2022/09/30 01:53:00;;;;;;;24.20;13.27;;;;;;;;;;5041852;28;20040;-79
2022/09/30 01:55:36;;;;;;;24.80;13.32;;;;;;;;;;5025151;28;20033;-78
2022/09/30 01:58:11;;;;;;;28.35;14.25;;;;;;;;;;5037833;28;20056;-79
2022/09/30 02:00:41;;;;;;;25.25;14.35;;;;;;;;;;5040793;28;20120;-78
2022/09/30 02:03:30;;;;;;;27.38;14.15;;;;;;;;;;5038114;28;20116;-78
2022/09/30 02:06:09;;;;;;;26.08;15.18;;;;;;;;;;5036689;28;20509;-78
2022/09/30 02:08:46;;;;;;;30.98;15.50;;;;;;;;;;5035859;28;20033;-75
2022/09/30 02:11:25;;;;;;;28.70;15.25;;;;;;;;;;5046052;28;20071;-75
2022/09/30 02:14:03;;;;;;;27.52;15.07;;;;;;;;;;5040600;28;20095;-74
2022/09/30 02:16:38;;;;;;;27.98;15.85;;;;;;;;;;5035088;28;20343;-75
2022/09/30 02:19:27;;;;;;;29.52;15.57;;;;;;;;;;5037454;28;20056;-79
2022/09/30 02:22:27;;;;;;;26.20;14.57;;;;;;;;;;4981243;28;20037;-81
2022/09/30 02:25:02;;;;;;;24.60;13.90;;;;;;;;;;5029889;28;20536;-79
2022/09/30 02:27:40;;;;;;;24.65;14.18;;;;;;;;;;5020315;28;20165;-80
2022/09/30 02:30:08;;;;;;;23.90;15.27;;;;;;;;;;5039836;28;20060;-78
2022/09/30 02:32:38;;;;;;;28.65;14.43;;;;;;;;;;5038206;28;20041;-78
2022/09/30 02:35:10;;;;;;;29.02;14.85;;;;;;;;;;5039122;28;20037;-78
2022/09/30 02:37:40;;;;;;;27.83;15.18;;;;;;;;;;5040940;28;20057;-78
2022/09/30 02:40:17;;;;;;;34.72;15.02;;;;;;;;;;5036320;28;20053;-78
2022/09/30 02:42:44;;;;;;;28.20;15.75;;;;;;;;;;5041321;28;20079;-78
2022/09/30 02:45:18;;;;;;;28.88;14.85;;;;;;;;;;5041179;28;20416;-79
2022/09/30 02:48:05;;;;;;;25.65;14.63;;;;;;;;;;5036190;28;20033;-78
2022/09/30 02:50:34;;;;;;;31.10;15.93;;;;;;;;;;5037241;28;20087;-79
2022/09/30 02:53:40;;;;;;;28.75;16.30;;;;;;;;;;5040394;28;20036;-78
2022/09/30 02:56:40;;;;;;;27.13;16.05;;;;;;;;;;5003783;28;20053;-78
2022/09/30 02:59:05;;;;;;;28.98;15.50;;;;;;;;;;5044836;28;20119;-79
2022/09/30 03:01:31;;;;;;;27.17;14.90;;;;;;;;;;5039023;28;20916;-78
2022/09/30 03:03:58;;;;;;;27.08;15.10;;;;;;;;;;5042063;28;20032;-78
2022/09/30 03:06:24;;;;;;;26.80;15.20;;;;;;;;;;5035236;28;20022;-79
2022/09/30 03:08:51;;;;;;;27.58;14.68;;;;;;;;;;5041868;28;20167;-78
2022/09/30 03:11:19;;;;;;;31.35;16.30;;;;;;;;;;5035017;28;20033;-79
2022/09/30 03:14:12;;;;;;;29.27;15.30;;;;;;;;;;5040730;28;20087;-78
2022/09/30 03:16:59;;;;;;;30.30;15.40;;;;;;;;;;5039961;28;20151;-78
2022/09/30 03:20:10;;;;;;;28.13;15.70;;;;;;;;;;5041015;28;20040;-79
2022/09/30 03:23:07;;;;;;;28.40;15.48;;;;;;;;;;5033328;28;20041;-79
2022/09/30 03:26:08;;;;;;;24.73;14.20;;;;;;;;;;5038463;28;20033;-80
2022/09/30 03:28:40;;;;;;;32.60;14.68;;;;;;;;;;5040514;28;20044;-80
2022/09/30 03:31:16;;;;;;;29.15;14.77;;;;;;;;;;5038984;28;20026;-80
2022/09/30 03:34:04;;;;;;;29.33;15.35;;;;;;;;;;5034981;28;20052;-81
2022/09/30 03:36:49;;;;;;;30.70;16.27;;;;;;;;;;5034405;28;20099;-81
2022/09/30 03:39:17;;;;;;;29.70;14.20;;;;;;;;;;5046267;28;20037;-80
2022/09/30 03:42:04;;;;;;;37.25;14.73;;;;;;;;;;5038858;28;20060;-80
2022/09/30 03:45:08;;;;;;;33.10;14.32;;;;;;;;;;5043427;28;20028;-81
2022/09/30 03:47:41;;;;;;;26.55;14.18;;;;;;;;;;5042390;28;20025;-81
2022/09/30 03:50:10;;;;;;;25.92;15.30;;;;;;;;;;5035352;28;20053;-80
2022/09/30 03:52:36;;;;;;;29.55;14.90;;;;;;;;;;5033472;28;20032;-79
2022/09/30 03:55:04;;;;;;;30.15;14.40;;;;;;;;;;5036288;28;20842;-80
2022/09/30 03:57:30;;;;;;;27.17;14.48;;;;;;;;;;5040287;28;20032;-82
2022/09/30 03:59:56;;;;;;;21.65;13.77;;;;;;;;;;5036844;28;20029;-80
2022/09/30 04:02:24;;;;;;;29.52;16.05;;;;;;;;;;5034747;28;20048;-79
2022/09/30 04:04:49;;;;;;;27.35;15.07;;;;;;;;;;5033202;28;20059;-80
2022/09/30 04:07:15;;;;;;;29.75;16.27;;;;;;;;;;5035804;28;20053;-79
2022/09/30 04:09:40;;;;;;;27.88;14.23;;;;;;;;;;5040283;28;20040;-80
2022/09/30 04:12:07;;;;;;;26.17;14.05;;;;;;;;;;5039259;28;20125;-79
2022/09/30 04:14:34;;;;;;;26.13;14.63;;;;;;;;;;5035061;28;20553;-80
2022/09/30 04:17:03;;;;;;;32.22;15.95;;;;;;;;;;5041113;28;20385;-81
2022/09/30 04:19:29;;;;;;;25.27;15.13;;;;;;;;;;5034865;28;20026;-80
2022/09/30 04:21:55;;;;;;;27.15;15.35;;;;;;;;;;5039739;28;20017;-78
2022/09/30 04:24:22;;;;;;;26.42;14.23;;;;;;;;;;5036224;28;20044;-79
2022/09/30 04:26:48;;;;;;;31.40;15.68;;;;;;;;;;5040033;28;20783;-80
2022/09/30 04:29:14;;;;;;;25.30;14.52;;;;;;;;;;5037199;28;20051;-78
2022/09/30 04:31:39;;;;;;;26.63;14.50;;;;;;;;;;5038851;28;20556;-79
2022/09/30 04:34:05;;;;;;;28.88;15.30;;;;;;;;;;5025274;28;20512;-80
2022/09/30 04:36:30;;;;;;;39.50;17.85;;;;;;;;;;5038895;28;20180;-80
2022/09/30 04:38:56;;;;;;;30.42;15.45;;;;;;;;;;5043468;28;20481;-80
2022/09/30 04:41:22;;;;;;;29.35;14.90;;;;;;;;;;5022584;28;20025;-80
2022/09/30 04:43:48;;;;;;;29.30;14.70;;;;;;;;;;5044433;28;20024;-80
2022/09/30 04:46:19;;;;;;;29.13;16.27;;;;;;;;;;5040096;28;20072;-80
2022/09/30 04:48:45;;;;;;;34.77;15.93;;;;;;;;;;5042904;28;20037;-80
2022/09/30 04:51:16;;;;;;;26.83;15.68;;;;;;;;;;5038873;28;20344;-79
2022/09/30 04:53:41;;;;;;;27.30;15.30;;;;;;;;;;5036984;28;20095;-79
2022/09/30 04:56:07;;;;;;;38.28;15.73;;;;;;;;;;5045444;28;20029;-80
2022/09/30 04:58:33;;;;;;;33.70;16.55;;;;;;;;;;5044203;28;20036;-80
2022/09/30 05:01:07;;;;;;;23.38;14.00;;;;;;;;;;5043590;28;20029;-76
2022/09/30 05:03:33;;;;;;;28.50;14.82;;;;;;;;;;5042699;28;20029;-76
2022/09/30 05:05:59;;;;;;;29.15;14.80;;;;;;;;;;5040811;28;20028;-78
2022/09/30 05:08:25;;;;;;;25.10;14.85;;;;;;;;;;5049753;28;20036;-77
2022/09/30 05:10:56;;;;;;;26.60;14.10;;;;;;;;;;5036647;28;20038;-75
2022/09/30 05:13:28;;;;;;;25.33;14.43;;;;;;;;;;5040163;28;20033;-74
2022/09/30 05:15:56;;;;;;;26.02;14.43;;;;;;;;;;5041511;28;20025;-74
2022/09/30 05:18:21;;;;;;;22.70;13.55;;;;;;;;;;5023573;28;20105;-78
2022/09/30 05:20:51;;;;;;;26.35;14.43;;;;;;;;;;5046583;28;20110;-76
2022/09/30 05:23:18;;;;;;;26.70;15.10;;;;;;;;;;5022475;28;20036;-74
2022/09/30 05:25:45;;;;;;;28.10;14.05;;;;;;;;;;5032282;28;20029;-78
2022/09/30 05:28:11;;;;;;;29.08;15.10;;;;;;;;;;5039709;28;20571;-76
2022/09/30 05:30:37;;;;;;;26.92;14.50;;;;;;;;;;5017601;28;20048;-73
2022/09/30 05:33:04;;;;;;;35.15;15.02;;;;;;;;;;5018742;28;20611;-78
2022/09/30 05:35:30;;;;;;;27.88;14.30;;;;;;;;;;5032597;28;20087;-76
2022/09/30 05:37:56;;;;;;;27.88;14.40;;;;;;;;;;5037434;28;20548;-72
2022/09/30 05:40:21;;;;;;;22.80;13.43;;;;;;;;;;5031420;28;20041;-76
2022/09/30 05:42:47;;;;;;;32.58;14.48;;;;;;;;;;5024837;28;20037;-76
2022/09/30 05:45:15;;;;;;;23.75;13.57;;;;;;;;;;5036168;28;20021;-74
2022/09/30 05:47:41;;;;;;;25.73;13.98;;;;;;;;;;5033027;28;20123;-76
2022/09/30 05:50:07;;;;;;;23.70;13.48;;;;;;;;;;5041314;28;20848;-75
2022/09/30 05:52:32;;;;;;;32.55;14.68;;;;;;;;;;5032017;28;20038;-73
2022/09/30 05:55:02;;;;;;;28.05;15.05;;;;;;;;;;5036839;28;20277;-74
2022/09/30 05:57:28;;;;;;;26.45;14.65;;;;;;;;;;5021515;28;20512;-76
2022/09/30 05:59:56;;;;;;;44.65;15.40;;;;;;;;;;5015613;28;20108;-73
2022/09/30 06:02:23;;;;;;;28.38;15.05;;;;;;;;;;5029870;28;20024;-76
2022/09/30 06:04:50;;;;;;;21.45;14.23;;;;;;;;;;5030679;28;20115;-74
2022/09/30 06:07:16;;;;;;;26.42;14.55;;;;;;;;;;5037904;28;20123;-74
2022/09/30 06:09:42;;;;;;;25.30;14.15;;;;;;;;;;5019830;28;20370;-76
2022/09/30 06:12:09;;;;;;;29.30;15.32;;;;;;;;;;5026606;28;20025;-76
2022/09/30 06:14:35;;;;;;;28.77;14.50;;;;;;;;;;5026768;28;20025;-75
2022/09/30 06:17:05;;;;;;;34.28;15.85;;;;;;;;;;5027876;28;20083;-75
2022/09/30 06:19:31;;;;;;;27.20;15.43;;;;;;;;;;5029819;28;20056;-76
2022/09/30 06:21:57;;;;;;;30.77;15.35;;;;;;;;;;5027307;28;20045;-80
2022/09/30 06:24:23;;;;;;;30.05;14.90;;;;;;;;;;5028863;28;20034;-78
2022/09/30 06:26:48;;;;;;;34.08;15.95;;;;;;;;;;5027079;28;20056;-78
2022/09/30 06:29:14;;;;;;;30.58;16.15;;;;;;;;;;5028971;28;20401;-79
2022/09/30 06:31:39;;;;;;;27.35;15.23;;;;;;;;;;5024627;28;20021;-78
2022/09/30 06:34:09;;;;;;;26.92;15.93;;;;;;;;;;5028705;28;20033;-79
2022/09/30 06:36:34;;;;;;;29.67;16.38;;;;;;;;;;5024552;28;20041;-79
2022/09/30 06:39:01;;;;;;;36.63;14.82;;;;;;;;;;5030630;28;20056;-79
2022/09/30 06:41:27;;;;;;;26.45;15.65;;;;;;;;;;5028875;28;20025;-77
2022/09/30 06:43:54;;;;;;;28.90;15.10;;;;;;;;;;5038140;28;20732;-76
2022/09/30 06:46:22;;;;;;;31.35;15.98;;;;;;;;;;5027187;28;20132;-80
2022/09/30 06:48:56;;;;;;;30.13;16.23;;;;;;;;;;5023228;28;20030;-79
2022/09/30 06:51:24;;;;;;;29.30;15.13;;;;;;;;;;5022947;28;20028;-80
2022/09/30 06:53:53;;;;;;;30.42;16.30;;;;;;;;;;5029743;28;20033;-79
2022/09/30 06:56:18;;;;;;;33.92;16.15;;;;;;;;;;5027850;28;20051;-78
2022/09/30 06:58:45;;;;;;;24.77;15.85;;;;;;;;;;5023884;28;20669;-76
2022/09/30 07:01:13;;;;;;;29.30;14.85;;;;;;;;;;5025716;28;20033;-77
2022/09/30 07:03:39;;;;;;;28.45;15.93;;;;;;;;;;5030531;28;20057;-77
2022/09/30 07:06:05;;;;;;;29.50;16.23;;;;;;;;;;5027938;28;20251;-77
2022/09/30 07:08:33;;;;;;;27.60;15.98;;;;;;;;;;5028875;28;20494;-77
2022/09/30 07:11:01;;;;;;;29.02;15.40;;;;;;;;;;5022444;28;20036;-76
2022/09/30 07:13:27;;;;;;;34.63;16.42;;;;;;;;;;5023754;28;20432;-78
2022/09/30 07:15:55;;;;;;;28.80;17.02;;;;;;;;;;5023268;28;20082;-78
2022/09/30 07:18:26;;;;;;;34.08;16.52;;;;;;;;;;5016929;28;20041;-76
2022/09/30 07:20:55;;;;;;;31.70;16.90;;;;;;;;;;5025797;28;20280;-79
2022/09/30 07:23:22;;;;;;;30.58;17.33;;;;;;;;;;5014955;28;20032;-80
2022/09/30 07:25:56;;;;;;;32.67;17.58;;;;;;;;;;5023485;28;20247;-78
2022/09/30 07:28:26;;;;;;;25.42;15.27;;;;;;;;;;5024105;28;20033;-76
2022/09/30 07:30:55;;;;;;;25.42;15.00;;;;;;;;;;5022343;28;20044;-79
2022/09/30 07:33:22;;;;;;;31.63;15.77;;;;;;;;;;5027303;28;20158;-81
2022/09/30 07:35:53;;;;;;;29.67;16.30;;;;;;;;;;5005402;28;20044;-78
2022/09/30 07:38:21;;;;;;;29.75;16.55;;;;;;;;;;5028912;28;20817;-74
2022/09/30 07:40:56;;;;;;;32.75;18.77;;;;;;;;;;5013560;28;20072;-76
2022/09/30 07:43:24;;;;;;;28.00;16.45;;;;;;;;;;5028540;28;20591;-79
2022/09/30 07:45:54;;;;;;;27.00;15.98;;;;;;;;;;5021708;28;20140;-78
2022/09/30 07:51:08;;;;;;;28.73;15.68;;;;;;;;;;5018508;28;20044;-77
2022/09/30 07:53:35;;;;;;;26.80;15.90;;;;;;;;;;5027472;28;20041;-77
2022/09/30 07:56:05;;;;;;;27.38;16.35;;;;;;;;;;5010356;28;20041;-77
2022/09/30 07:58:31;;;;;;;37.88;15.77;;;;;;;;;;5027331;28;20044;-80
2022/09/30 08:00:57;;;;;;;33.30;16.00;;;;;;;;;;5012960;28;20041;-75
2022/09/30 08:03:23;;;;;;;28.55;14.82;;;;;;;;;;5026114;28;20029;-75
2022/09/30 08:05:48;;;;;;;32.35;16.67;;;;;;;;;;5027392;28;20055;-78
2022/09/30 08:08:16;;;;;;;31.58;16.95;;;;;;;;;;5026285;28;20029;-80
2022/09/30 08:10:41;;;;;;;26.00;15.48;;;;;;;;;;5030727;28;20037;-74
2022/09/30 08:13:08;;;;;;;38.72;19.08;;;;;;;;;;5028427;28;20426;-75
2022/09/30 08:15:35;;;;;;;33.78;18.98;;;;;;;;;;5028803;28;20075;-76
2022/09/30 08:18:00;;;;;;;44.78;21.48;;;;;;;;;;5017970;28;20959;-74
2022/09/30 08:20:26;;;;;;;38.88;19.33;;;;;;;;;;5013645;28;20148;-78
2022/09/30 08:22:55;;;;;;;33.13;19.40;;;;;;;;;;5028989;28;20060;-77
2022/09/30 08:25:22;;;;;;;34.45;18.50;;;;;;;;;;5022213;28;20048;-77
2022/09/30 08:27:48;;;;;;;33.30;19.05;;;;;;;;;;5033697;28;20064;-77
2022/09/30 08:30:16;;;;;;;35.75;18.92;;;;;;;;;;5021487;28;20667;-77
2022/09/30 08:32:42;;;;;;;33.50;18.40;;;;;;;;;;5027648;28;20109;-78
2022/09/30 08:35:07;;;;;;;33.00;17.08;;;;;;;;;;5030380;28;20041;-79
2022/09/30 08:37:33;;;;;;;38.92;18.30;;;;;;;;;;5030291;28;20075;-75
2022/09/30 08:39:59;;;;;;;29.10;15.32;;;;;;;;;;5027322;28;20057;-80
2022/09/30 08:42:43;;;;;;;30.25;15.65;;;;;;;;;;5028176;28;20115;-81
2022/09/30 08:45:14;;;;;;;26.15;14.45;;;;;;;;;;5029287;28;20033;-80
2022/09/30 08:48:16;;;;;;;28.45;15.27;;;;;;;;;;5034656;28;20083;-79
2022/09/30 08:50:48;;;;;;;27.08;14.90;;;;;;;;;;5026459;28;20165;-73
2022/09/30 08:53:29;;;;;;;32.58;15.90;;;;;;;;;;5033412;28;20076;-83
2022/09/30 08:55:56;;;;;;;30.38;15.38;;;;;;;;;;5028962;28;20037;-82
2022/09/30 08:58:28;;;;;;;22.17;13.15;;;;;;;;;;5027482;28;20032;-80
2022/09/30 09:01:14;;;;;;;26.80;14.55;;;;;;;;;;5024952;28;20544;-80
2022/09/30 09:03:40;;;;;;;23.27;13.68;;;;;;;;;;5032369;28;20029;-75
2022/09/30 09:06:11;;;;;;;20.63;12.70;;;;;;;;;;5028188;28;20083;-78
2022/09/30 09:09:01;;;;;;;21.42;12.43;;;;;;;;;;5034530;28;20037;-79
2022/09/30 09:11:49;;;;;;;22.17;13.20;;;;;;;;;;5030607;28;20477;-79
2022/09/30 09:14:28;;;;;;;24.15;13.25;;;;;;;;;;5043241;28;20040;-79
2022/09/30 09:17:28;;;;;;;21.98;13.00;;;;;;;;;;5029006;28;20033;-79
2022/09/30 09:20:13;;;;;;;24.27;14.35;;;;;;;;;;5031617;28;20034;-79
2022/09/30 09:22:42;;;;;;;23.92;12.95;;;;;;;;;;5025258;28;20120;-80
2022/09/30 09:25:24;;;;;;;20.23;12.15;;;;;;;;;;5030949;28;20297;-78
2022/09/30 09:28:00;;;;;;;23.80;13.55;;;;;;;;;;5032987;28;20050;-79
2022/09/30 09:30:32;;;;;;;27.48;13.32;;;;;;;;;;5031028;28;20463;-79
2022/09/30 09:33:16;;;;;;;21.50;12.07;;;;;;;;;;5033819;28;20080;-77
2022/09/30 09:36:04;;;;;;;21.73;12.43;;;;;;;;;;5028587;28;20037;-78
2022/09/30 09:39:03;;;;;;;27.42;14.57;;;;;;;;;;5031224;28;20025;-79
2022/09/30 09:41:34;;;;;;;28.55;14.68;;;;;;;;;;5012620;28;20599;-78
2022/09/30 09:44:08;;;;;;;24.65;13.13;;;;;;;;;;5010846;28;20042;-78
2022/09/30 09:46:46;;;;;;;22.17;12.95;;;;;;;;;;4992347;28;20120;-79
2022/09/30 09:49:12;;;;;;;22.55;12.98;;;;;;;;;;5009753;28;20560;-79
2022/09/30 09:51:42;;;;;;;22.17;12.68;;;;;;;;;;5010570;28;20057;-80
2022/09/30 09:54:11;;;;;;;55.95;15.98;;;;;;;;;;4993221;28;20041;-81
2022/09/30 09:56:37;;;;;;;26.58;13.88;;;;;;;;;;4998254;28;20045;-78
2022/09/30 09:59:15;;;;;;;22.73;14.48;;;;;;;;;;4993446;28;20037;-80
2022/09/30 10:01:41;;;;;;;22.80;13.95;;;;;;;;;;4995746;28;20042;-79
2022/09/30 10:04:19;;;;;;;20.95;11.48;;;;;;;;;;4993385;28;20053;-78
2022/09/30 10:06:47;;;;;;;21.55;12.10;;;;;;;;;;4991038;28;20042;-79
2022/09/30 10:09:24;;;;;;;26.63;12.55;;;;;;;;;;4991921;28;20104;-77
2022/09/30 10:12:12;;;;;;;24.52;11.13;;;;;;;;;;5006722;28;20029;-78
2022/09/30 10:15:14;;;;;;;24.67;11.50;;;;;;;;;;5010733;28;20042;-78
2022/09/30 10:17:40;;;;;;;19.67;11.38;;;;;;;;;;5010178;28;20030;-78
2022/09/30 10:20:14;;;;;;;19.67;11.95;;;;;;;;;;4995208;28;20117;-78
2022/09/30 10:22:40;;;;;;;16.17;9.93;;;;;;;;;;5012445;28;20175;-77
2022/09/30 10:25:21;;;;;;;18.25;11.52;;;;;;;;;;5020971;28;20068;-81
2022/09/30 10:27:54;;;;;;;22.73;11.53;;;;;;;;;;5009712;28;20447;-82
2022/09/30 10:30:44;;;;;;;19.05;11.00;;;;;;;;;;4993785;28;20061;-79
2022/09/30 10:33:23;;;;;;;18.40;10.68;;;;;;;;;;5006890;28;20098;-79
2022/09/30 10:35:55;;;;;;;17.70;10.25;;;;;;;;;;5012072;28;20057;-80
2022/09/30 10:38:28;;;;;;;15.98;9.10;;;;;;;;;;4991131;28;20058;-80
2022/09/30 10:40:54;;;;;;;23.25;10.57;;;;;;;;;;5025076;28;20153;-78
2022/09/30 10:43:29;;;;;;;13.57;9.82;;;;;;;;;;5016581;28;20041;-79
2022/09/30 10:45:58;;;;;;;20.42;8.63;;;;;;;;;;5026042;28;20148;-79
2022/09/30 10:48:34;;;;;;;14.25;8.98;;;;;;;;;;5008775;28;21346;-79
2022/09/30 10:51:00;;;;;;;13.20;9.60;;;;;;;;;;5023397;28;20033;-76
2022/09/30 10:53:31;;;;;;;16.77;9.75;;;;;;;;;;5011127;28;20034;-77
2022/09/30 10:56:10;;;;;;;;;;;;;;;;;;5024523;28;20033;-78
2022/09/30 10:58:47;;;;;;;12.88;8.50;;;;;;;;;;5016529;28;19933;-76
2022/09/30 11:01:27;;;;;;;20.95;12.65;;;;;;;;;;5037500;28;20616;-81
2022/09/30 11:04:16;;;;;;;16.40;9.77;;;;;;;;;;5011040;28;20057;-81
2022/09/30 11:06:45;;;;;;;15.90;9.18;;;;;;;;;;5023874;28;20107;-79
2022/09/30 11:09:38;;;;;;;14.88;9.95;;;;;;;;;;5017094;28;20440;-77
2022/09/30 11:12:18;;;;;;;15.93;9.13;;;;;;;;;;5004494;28;20042;-81
2022/09/30 11:14:50;;;;;;;21.08;10.07;;;;;;;;;;5028415;28;20428;-80
2022/09/30 11:17:34;;;;;;;13.98;9.18;;;;;;;;;;5025114;28;20461;-79
2022/09/30 11:20:18;;;;;;;13.05;7.90;;;;;;;;;;5013953;28;20080;-79
2022/09/30 11:22:50;;;;;;;18.00;8.95;;;;;;;;;;5009251;28;20041;-78
2022/09/30 11:25:30;;;;;;;10.25;5.53;;;;;;;;;;5025072;28;20074;-79
2022/09/30 11:28:20;;;;;;;10.88;5.50;;;;;;;;;;5018656;28;20052;-80
2022/09/30 11:31:15;;;;;;;8.55;5.78;;;;;;;;;;5021428;28;20105;-80
2022/09/30 11:34:02;;;;;;;9.93;6.05;;;;;;;;;;5010306;28;20045;-78
2022/09/30 11:36:31;;;;;;;6.75;4.00;;;;;;;;;;5020139;28;20033;-79
2022/09/30 11:39:05;;;;;;;8.45;4.05;;;;;;;;;;5009406;28;20038;-78
2022/09/30 11:41:41;;;;;;;5.57;4.15;;;;;;;;;;5028070;28;20131;-77
2022/09/30 11:44:35;;;;;;;8.23;4.45;;;;;;;;;;5027054;28;20021;-81
2022/09/30 11:47:06;;;;;;;6.50;3.65;;;;;;;;;;5033923;28;20037;-78
2022/09/30 11:49:35;;;;;;;7.95;4.80;;;;;;;;;;5027530;28;20082;-78
2022/09/30 11:52:12;;;;;;;42.55;17.42;;;;;;;;;;5029409;28;20037;-79
2022/09/30 11:54:56;;;;;;;7.78;4.85;;;;;;;;;;5025750;28;20053;-79
2022/09/30 11:57:45;;;;;;;6.30;4.05;;;;;;;;;;5023643;28;20118;-81
2022/09/30 12:00:11;;;;;;;8.68;5.53;;;;;;;;;;5029982;28;20048;-76
2022/09/30 12:02:47;;;;;;;9.10;5.13;;;;;;;;;;5028597;28;20778;-78
2022/09/30 12:05:21;;;;;;;8.00;4.70;;;;;;;;;;5028245;28;20670;-78
2022/09/30 12:07:53;;;;;;;6.47;4.82;;;;;;;;;;5018218;28;20291;-77
2022/09/30 12:10:28;;;;;;;7.35;5.03;;;;;;;;;;5038688;28;20084;-79
2022/09/30 12:13:05;;;;;;;10.15;7.00;;;;;;;;;;5038249;28;20473;-79
2022/09/30 12:15:32;;;;;;;11.32;5.75;;;;;;;;;;5041004;28;20519;-79
2022/09/30 12:18:02;;;;;;;7.30;5.90;;;;;;;;;;5027218;28;20029;-78
2022/09/30 12:20:33;;;;;;;8.20;5.68;;;;;;;;;;5016243;28;20074;-77
2022/09/30 12:23:05;;;;;;;8.40;5.25;;;;;;;;;;5040108;28;20112;-79
2022/09/30 12:25:39;;;;;;;14.32;5.40;;;;;;;;;;5037919;28;20037;-78
2022/09/30 12:31:53;;;;;;;10.93;5.65;;;;;;;;;;5038869;28;20044;-79
2022/09/30 12:34:44;;;;;;;125.25;15.55;;;;;;;;;;5004096;28;20046;-79
2022/09/30 12:37:40;;;;;;;14.10;6.25;;;;;;;;;;5027726;28;20111;-79
2022/09/30 12:40:24;;;;;;;10.23;6.15;;;;;;;;;;5030790;28;20146;-79
2022/09/30 12:43:08;;;;;;;11.80;5.78;;;;;;;;;;5025804;28;20060;-79
2022/09/30 12:45:55;;;;;;;14.65;5.85;;;;;;;;;;5020171;28;20065;-78
2022/09/30 12:48:27;;;;;;;11.82;5.72;;;;;;;;;;5014825;28;20033;-77
2022/09/30 12:50:56;;;;;;;7.20;5.20;;;;;;;;;;5015580;28;20079;-77
2022/09/30 12:53:40;;;;;;;6.45;4.72;;;;;;;;;;5023964;28;20038;-78
2022/09/30 12:56:16;;;;;;;6.10;4.88;;;;;;;;;;5023126;28;20034;-78
2022/09/30 12:58:50;;;;;;;9.93;5.10;;;;;;;;;;5023779;28;20108;-80
2022/09/30 13:01:22;;;;;;;5.60;3.88;;;;;;;;;;5035082;28;20084;-79
2022/09/30 13:03:47;;;;;;;;;;;;;;;;;;5036545;28;20076;-79
2022/09/30 13:06:15;;;;;;;4.82;4.15;;;;;;;;;;5039142;28;19921;-79
2022/09/30 13:09:06;;;;;;;7.63;4.20;;;;;;;;;;5034488;28;20030;-79
2022/09/30 13:11:36;;;;;;;13.82;5.88;;;;;;;;;;5023529;28;20651;-79
2022/09/30 13:14:17;;;;;;;10.07;4.68;;;;;;;;;;5016185;28;20037;-79
2022/09/30 13:17:07;;;;;;;7.25;4.60;;;;;;;;;;5026153;28;20037;-78
2022/09/30 13:19:43;;;;;;;9.68;5.70;;;;;;;;;;5034647;28;20423;-79
2022/09/30 13:22:28;;;;;;;10.15;5.30;;;;;;;;;;5023863;28;20041;-79
2022/09/30 13:24:57;;;;;;;7.18;5.60;;;;;;;;;;5021451;28;20033;-78
2022/09/30 13:27:40;;;;;;;7.00;4.90;;;;;;;;;;5035045;28;20032;-81
2022/09/30 13:30:12;;;;;;;6.55;4.47;;;;;;;;;;5043044;28;20060;-78
2022/09/30 13:32:38;;;;;;;;;;;;;;;;;;5017639;28;20087;-78
2022/09/30 13:35:36;;;;;;;8.52;4.78;;;;;;;;;;5034955;28;19917;-78
2022/09/30 13:38:13;;;;;;;8.90;6.03;;;;;;;;;;5019090;28;20570;-77
2022/09/30 13:40:54;;;;;;;8.68;5.75;;;;;;;;;;5042226;28;20057;-78
2022/09/30 13:43:41;;;;;;;17.10;5.65;;;;;;;;;;5018247;28;20048;-79
2022/09/30 13:46:42;;;;;;;10.93;5.93;;;;;;;;;;5020697;28;20037;-79
2022/09/30 13:49:39;;;;;;;7.53;5.43;;;;;;;;;;5040386;28;20063;-78
2022/09/30 13:52:23;;;;;;;6.05;4.60;;;;;;;;;;5042567;28;20060;-79
2022/09/30 13:54:50;;;;;;;10.15;4.10;;;;;;;;;;5018930;28;20556;-77
2022/09/30 13:57:26;;;;;;;7.22;4.13;;;;;;;;;;5019029;28;20053;-79
2022/09/30 14:00:06;;;;;;;6.05;4.60;;;;;;;;;;5027700;28;20071;-78
2022/09/30 14:02:56;;;;;;;7.38;6.07;;;;;;;;;;5039778;28;20029;-77
2022/09/30 14:06:19;;;;;;;9.90;5.85;;;;;;;;;;5045901;28;20032;-78
2022/09/30 14:08:53;;;;;;;7.95;5.43;;;;;;;;;;4996969;28;20030;-78
2022/09/30 14:11:43;;;;;;;10.00;5.85;;;;;;;;;;5016744;28;20042;-79
2022/09/30 14:14:29;;;;;;;12.05;6.90;;;;;;;;;;5023478;28;20509;-78
2022/09/30 14:17:29;;;;;;;11.30;5.38;;;;;;;;;;5033784;28;20072;-77
2022/09/30 14:20:22;;;;;;;13.82;7.70;;;;;;;;;;5023914;28;20034;-79
2022/09/30 14:22:48;;;;;;;7.28;5.10;;;;;;;;;;5031384;28;20032;-78
2022/09/30 14:25:16;;;;;;;8.15;4.40;;;;;;;;;;5028691;28;20092;-79
2022/09/30 14:27:44;;;;;;;8.23;4.85;;;;;;;;;;5016559;28;20032;-78
2022/09/30 14:30:23;;;;;;;14.48;6.00;;;;;;;;;;5021483;28;20045;-78
2022/09/30 14:33:00;;;;;;;6.00;4.72;;;;;;;;;;5037550;28;20045;-78
2022/09/30 14:35:28;;;;;;;8.25;5.65;;;;;;;;;;5035667;28;20083;-79
2022/09/30 14:38:17;;;;;;;10.35;6.03;;;;;;;;;;5018603;28;20356;-78
2022/09/30 14:40:50;;;;;;;6.82;4.40;;;;;;;;;;5030379;28;20045;-79
2022/09/30 14:43:21;;;;;;;6.07;4.45;;;;;;;;;;5041201;28;20031;-77
2022/09/30 14:45:53;;;;;;;7.15;4.57;;;;;;;;;;5018322;28;20037;-79
2022/09/30 14:48:28;;;;;;;7.05;4.50;;;;;;;;;;5040094;28;20039;-78
2022/09/30 14:51:05;;;;;;;6.07;3.95;;;;;;;;;;5036627;28;20039;-77
2022/09/30 14:53:38;;;;;;;12.13;4.60;;;;;;;;;;5038877;28;20044;-77
2022/09/30 14:56:20;;;;;;;5.78;3.58;;;;;;;;;;5040497;28;20028;-79
2022/09/30 14:58:51;;;;;;;6.18;4.55;;;;;;;;;;5042274;28;20488;-79
2022/09/30 15:01:19;;;;;;;7.72;5.18;;;;;;;;;;5029524;28;20039;-77
2022/09/30 15:04:00;;;;;;;12.18;5.80;;;;;;;;;;5023326;28;20561;-79
2022/09/30 15:06:36;;;;;;;9.60;4.80;;;;;;;;;;5036716;28;20496;-79
2022/09/30 15:09:06;;;;;;;7.95;3.65;;;;;;;;;;5038096;28;20584;-78
2022/09/30 15:11:33;;;;;;;8.38;3.65;;;;;;;;;;5038035;28;20574;-79